createdAt,value
2022-09-10T00:00:28.556Z,89.70
2022-09-10T00:02:56.022Z,89.64
2022-09-10T00:05:23.492Z,89.64
2022-09-10T00:07:50.918Z,90.04
2022-09-10T00:10:19.872Z,90.14
2022-09-10T00:12:48.099Z,90.11
2022-09-10T00:15:15.602Z,90.10
2022-09-10T00:17:43.014Z,90.39
2022-09-10T00:20:11.198Z,90.41
2022-09-10T00:22:38.588Z,91.09
2022-09-10T00:25:08.469Z,91.35
2022-09-10T00:27:37.782Z,91.72
2022-09-10T00:30:06.409Z,92.17
2022-09-10T00:32:34.728Z,92.23
2022-09-10T00:35:02.131Z,92.48
2022-09-10T00:37:30.796Z,92.62
2022-09-10T00:39:59.140Z,92.95
2022-09-10T00:42:26.568Z,92.74
2022-09-10T00:45:05.467Z,93.26
2022-09-10T00:47:36.470Z,92.97
2022-09-10T00:50:16.142Z,93.01
2022-09-10T00:52:44.609Z,92.76
2022-09-10T00:55:13.366Z,92.49
2022-09-10T00:57:42.070Z,92.34
2022-09-10T01:00:14.182Z,92.56
2022-09-10T01:02:41.820Z,92.43
2022-09-10T01:05:11.689Z,92.62
2022-09-10T01:07:39.320Z,92.87
2022-09-10T01:10:11.501Z,93.06
2022-09-10T01:13:21.595Z,93.21
2022-09-10T01:15:58.681Z,93.67
2022-09-10T01:18:38.969Z,93.62
2022-09-10T01:21:16.640Z,93.58
2022-09-10T01:24:14.493Z,93.73
2022-09-10T01:27:15.479Z,93.66
2022-09-10T01:29:49.876Z,93.31
2022-09-10T01:32:24.954Z,93.08
2022-09-10T01:35:00.698Z,93.15
2022-09-10T01:37:31.277Z,93.13
2022-09-10T01:40:01.046Z,93.32
2022-09-10T01:42:29.309Z,93.59
2022-09-10T01:44:58.987Z,93.35
2022-09-10T01:47:50.995Z,93.47
2022-09-10T01:50:25.583Z,93.54
2022-09-10T01:53:07.197Z,93.61
2022-09-10T01:55:44.203Z,93.80
2022-09-10T01:58:22.161Z,93.84
2022-09-10T02:00:59.975Z,94.01
2022-09-10T02:03:29.430Z,94.04
2022-09-10T02:05:58.799Z,94.04
2022-09-10T02:08:30.991Z,94.21
2022-09-10T02:11:00.675Z,94.42
2022-09-10T02:13:30.632Z,94.34
2022-09-10T02:16:00.309Z,94.16
2022-09-10T02:18:28.229Z,94.26
2022-09-10T02:20:58.353Z,94.32
2022-09-10T02:23:31.385Z,94.32
2022-09-10T02:25:59.384Z,94.56
2022-09-10T02:28:27.299Z,94.53
2022-09-10T02:30:54.976Z,94.41
2022-09-10T02:33:23.761Z,94.41
2022-09-10T02:35:51.949Z,94.26
2022-09-10T02:38:19.723Z,94.09
2022-09-10T02:40:48.912Z,94.35
2022-09-10T02:43:17.164Z,94.54
2022-09-10T02:45:45.272Z,94.53
2022-09-10T02:48:12.939Z,94.74
2022-09-10T02:50:41.811Z,94.29
2022-09-10T02:53:09.222Z,94.72
2022-09-10T02:55:36.628Z,94.56
2022-09-10T02:58:04.095Z,94.36
2022-09-10T03:00:31.807Z,94.67
2022-09-10T03:03:02.910Z,94.74
2022-09-10T03:05:30.675Z,94.50
2022-09-10T03:08:00.290Z,94.53
2022-09-10T03:10:28.224Z,94.47
2022-09-10T03:12:55.638Z,94.40
2022-09-10T03:15:23.086Z,94.36
2022-09-10T03:17:50.797Z,94.33
2022-09-10T03:20:18.832Z,94.11
2022-09-10T03:22:47.529Z,93.99
2022-09-10T03:25:17.139Z,94.00
2022-09-10T03:27:44.558Z,93.91
2022-09-10T03:30:12.741Z,93.95
2022-09-10T03:32:40.206Z,94.11
2022-09-10T03:35:08.403Z,94.65
2022-09-10T03:37:36.262Z,94.52
2022-09-10T03:40:05.481Z,94.54
2022-09-10T03:42:34.428Z,94.45
2022-09-10T03:45:01.860Z,94.37
2022-09-10T03:47:29.294Z,94.04
2022-09-10T03:49:56.702Z,93.86
2022-09-10T03:52:24.184Z,93.70
2022-09-10T03:54:51.631Z,93.63
2022-09-10T03:57:19.254Z,93.58
2022-09-10T03:59:48.006Z,93.90
2022-09-10T04:02:15.490Z,94.04
2022-09-10T04:04:42.939Z,94.39
2022-09-10T04:07:11.067Z,94.53
2022-09-10T04:09:38.544Z,94.62
2022-09-10T04:12:06.402Z,94.72
2022-09-10T04:14:34.311Z,94.85
2022-09-10T04:17:03.244Z,94.74
2022-09-10T04:19:30.842Z,94.71
2022-09-10T04:21:58.262Z,95.03
2022-09-10T04:24:25.743Z,95.15
2022-09-10T04:26:53.166Z,95.32
2022-09-10T04:29:20.802Z,95.72
2022-09-10T04:31:48.225Z,95.82
2022-09-10T04:34:17.448Z,95.59
2022-09-10T04:36:44.956Z,95.85
2022-09-10T04:39:14.368Z,95.63
2022-09-10T04:41:41.780Z,95.41
2022-09-10T04:44:09.291Z,95.46
2022-09-10T04:46:36.803Z,95.31
2022-09-10T04:49:04.339Z,95.15
2022-09-10T04:51:33.294Z,95.22
2022-09-10T04:54:01.651Z,95.13
2022-09-10T04:56:29.250Z,95.17
2022-09-10T04:58:56.918Z,95.08
2022-09-10T05:01:24.945Z,94.99
2022-09-10T05:03:52.422Z,95.07
2022-09-10T05:06:20.196Z,94.98
2022-09-10T05:08:48.955Z,94.84
2022-09-10T05:11:19.511Z,95.00
2022-09-10T05:13:47.230Z,94.98
2022-09-10T05:16:15.067Z,94.92
2022-09-10T05:18:42.498Z,94.74
2022-09-10T05:21:10.222Z,94.97
2022-09-10T05:23:39.384Z,94.92
2022-09-10T05:26:08.368Z,94.74
2022-09-10T05:28:35.758Z,94.84
2022-09-10T05:31:03.287Z,94.99
2022-09-10T05:33:30.892Z,95.28
2022-09-10T05:35:58.278Z,95.20
2022-09-10T05:38:26.445Z,95.20
2022-09-10T05:40:53.898Z,95.25
2022-09-10T05:43:22.654Z,95.06
2022-09-10T05:45:51.759Z,94.93
2022-09-10T05:48:19.183Z,95.16
2022-09-10T05:50:46.675Z,94.92
2022-09-10T05:53:14.583Z,95.03
2022-09-10T05:55:43.780Z,95.05
2022-09-10T05:58:13.444Z,95.30
2022-09-10T06:00:43.878Z,95.02
2022-09-10T06:03:11.768Z,95.30
2022-09-10T06:05:39.271Z,95.22
2022-09-10T06:08:08.748Z,95.20
2022-09-10T06:10:36.797Z,95.31
2022-09-10T06:13:04.232Z,95.14
2022-09-10T06:15:34.721Z,94.94
2022-09-10T06:18:03.825Z,94.75
2022-09-10T06:20:31.271Z,94.59
2022-09-10T06:22:58.881Z,94.61
2022-09-10T06:25:26.307Z,94.60
2022-09-10T06:27:53.723Z,94.47
2022-09-10T06:30:21.591Z,94.38
2022-09-10T06:32:49.039Z,94.32
2022-09-10T06:35:18.000Z,93.87
2022-09-10T06:37:45.410Z,94.09
2022-09-10T06:40:13.183Z,93.86
2022-09-10T06:42:41.026Z,93.67
2022-09-10T06:45:09.318Z,93.78
2022-09-10T06:50:26.444Z,93.83
2022-09-10T06:52:54.066Z,92.66
2022-09-10T06:55:21.491Z,92.74
2022-09-10T06:57:48.916Z,91.72
2022-09-10T07:00:17.385Z,91.43
2022-09-10T07:02:44.807Z,91.23
2022-09-10T07:05:12.245Z,91.20
2022-09-10T07:07:41.015Z,90.98
2022-09-10T07:10:09.342Z,90.84
2022-09-10T07:12:36.782Z,89.83
2022-09-10T07:15:04.527Z,89.79
2022-09-10T07:17:35.273Z,89.49
2022-09-10T07:20:03.240Z,89.34
2022-09-10T07:22:31.006Z,89.01
2022-09-10T07:25:00.091Z,88.75
2022-09-10T07:27:27.544Z,88.16
2022-09-10T07:29:54.974Z,88.18
2022-09-10T07:32:22.462Z,87.40
2022-09-10T07:34:49.946Z,88.41
2022-09-10T07:37:17.395Z,88.18
2022-09-10T07:39:45.874Z,88.07
2022-09-10T07:42:14.696Z,88.14
2022-09-10T07:44:42.143Z,88.12
2022-09-10T07:47:09.616Z,87.02
2022-09-10T07:49:37.045Z,86.32
2022-09-10T07:52:04.870Z,87.22
2022-09-10T07:54:32.322Z,87.17
2022-09-10T07:56:59.740Z,86.53
2022-09-10T07:59:28.507Z,86.93
2022-09-10T08:01:55.969Z,87.32
2022-09-10T08:04:24.320Z,86.53
2022-09-10T08:06:52.020Z,86.59
2022-09-10T08:09:20.192Z,86.37
2022-09-10T08:11:47.587Z,86.80
2022-09-10T08:14:15.075Z,87.69
2022-09-10T08:16:44.635Z,87.55
2022-09-10T08:19:13.670Z,88.62
2022-09-10T08:21:41.125Z,88.03
2022-09-10T08:24:08.557Z,87.58
2022-09-10T08:26:35.966Z,88.53
2022-09-10T08:29:03.988Z,87.97
2022-09-10T08:31:31.393Z,87.45
2022-09-10T08:34:00.126Z,87.65
2022-09-10T08:36:27.651Z,88.01
2022-09-10T08:39:00.710Z,86.71
2022-09-10T08:41:42.129Z,87.44
2022-09-10T08:44:16.081Z,86.63
2022-09-10T08:46:48.280Z,87.49
2022-09-10T08:49:26.816Z,88.32
2022-09-10T08:51:57.528Z,88.27
2022-09-10T08:54:28.845Z,88.87
2022-09-10T08:57:00.625Z,88.98
2022-09-10T08:59:34.302Z,88.27
2022-09-10T09:02:07.184Z,88.74
2022-09-10T09:04:44.839Z,86.97
2022-09-10T09:07:14.685Z,87.83
2022-09-10T09:09:42.965Z,87.22
2022-09-10T09:12:19.519Z,87.91
2022-09-10T09:14:56.645Z,86.80
2022-09-10T09:17:37.567Z,85.85
2022-09-10T09:20:15.733Z,85.79
2022-09-10T09:22:51.801Z,85.53
2022-09-10T09:25:24.478Z,85.91
2022-09-10T09:27:56.378Z,85.15
2022-09-10T09:30:26.972Z,84.39
2022-09-10T09:32:58.324Z,83.59
2022-09-10T09:35:32.197Z,83.51
2022-09-10T09:38:13.673Z,83.70
2022-09-10T09:40:46.827Z,84.99
2022-09-10T09:43:23.843Z,84.64
2022-09-10T09:45:53.297Z,84.18
2022-09-10T09:48:24.304Z,85.86
2022-09-10T09:50:56.582Z,85.53
2022-09-10T09:53:26.091Z,85.40
2022-09-10T09:55:55.945Z,85.85
2022-09-10T09:58:37.329Z,85.32
2022-09-10T10:01:14.362Z,84.60
2022-09-10T10:03:50.134Z,85.45
2022-09-10T10:06:21.710Z,83.92
2022-09-10T10:08:57.013Z,84.07
2022-09-10T10:11:41.505Z,84.76
2022-09-10T10:14:21.249Z,83.16
2022-09-10T10:16:49.398Z,85.06
2022-09-10T10:19:29.714Z,84.67
2022-09-10T10:21:59.972Z,85.26
2022-09-10T10:24:32.530Z,85.00
2022-09-10T10:27:00.296Z,83.89
2022-09-10T10:29:28.529Z,83.83
2022-09-10T10:31:57.362Z,83.57
2022-09-10T10:34:47.369Z,82.94
2022-09-10T10:37:23.546Z,83.39
2022-09-10T10:40:09.301Z,81.46
2022-09-10T10:42:41.683Z,81.27
2022-09-10T10:45:28.355Z,81.11
2022-09-10T10:48:04.011Z,77.63
2022-09-10T10:50:38.116Z,78.77
2022-09-10T10:53:19.370Z,77.48
2022-09-10T10:55:53.308Z,78.15
2022-09-10T10:58:40.002Z,77.55
2022-09-10T11:01:14.738Z,74.81
2022-09-10T11:03:48.731Z,73.91
2022-09-10T11:06:20.929Z,77.33
2022-09-10T11:08:55.046Z,74.08
2022-09-10T11:11:29.043Z,74.62
2022-09-10T11:14:02.259Z,73.23
2022-09-10T11:16:40.308Z,75.46
2022-09-10T11:19:17.029Z,75.76
2022-09-10T11:21:52.161Z,79.22
2022-09-10T11:24:24.246Z,80.31
2022-09-10T11:26:56.948Z,82.36
2022-09-10T11:29:34.813Z,82.15
2022-09-10T11:32:07.975Z,81.96
2022-09-10T11:34:43.351Z,83.50
2022-09-10T11:37:17.732Z,84.09
2022-09-10T11:39:50.059Z,83.94
2022-09-10T11:42:23.158Z,81.93
2022-09-10T11:44:59.096Z,82.23
2022-09-10T11:47:33.094Z,82.68
2022-09-10T11:50:04.323Z,82.39
2022-09-10T11:52:33.578Z,81.60
2022-09-10T11:55:03.711Z,81.83
2022-09-10T11:57:40.790Z,82.78
2022-09-10T12:00:15.853Z,83.20
2022-09-10T12:03:20.153Z,81.84
2022-09-10T12:05:57.124Z,83.38
2022-09-10T12:08:38.251Z,83.43
2022-09-10T12:11:16.147Z,82.44
2022-09-10T12:13:45.512Z,82.50
2022-09-10T12:16:21.890Z,81.89
2022-09-10T12:18:52.193Z,82.59
2022-09-10T12:21:29.295Z,82.96
2022-09-10T12:23:58.119Z,83.23
2022-09-10T12:26:27.156Z,82.62
2022-09-10T12:29:01.480Z,81.58
2022-09-10T12:31:28.970Z,80.81
2022-09-10T12:34:17.017Z,80.53
2022-09-10T12:37:24.449Z,78.58
2022-09-10T12:40:25.541Z,80.04
2022-09-10T12:42:58.718Z,76.96
2022-09-10T12:46:01.602Z,76.86
2022-09-10T12:48:29.706Z,76.06
2022-09-10T12:51:00.421Z,76.54
2022-09-10T12:54:07.435Z,74.22
2022-09-10T12:56:50.775Z,74.72
2022-09-10T12:59:55.095Z,73.02
2022-09-10T13:02:30.215Z,72.99
2022-09-10T13:05:01.033Z,70.47
2022-09-10T13:07:35.655Z,73.20
2022-09-10T13:10:08.085Z,72.10
2022-09-10T13:12:37.504Z,72.41
2022-09-10T13:15:07.861Z,73.79
2022-09-10T13:17:41.100Z,73.16
2022-09-10T13:20:29.113Z,75.25
2022-09-10T13:22:58.792Z,74.16
2022-09-10T13:25:34.771Z,77.43
2022-09-10T13:28:02.680Z,79.91
2022-09-10T13:30:31.982Z,80.32
2022-09-10T13:33:01.940Z,78.89
2022-09-10T13:35:59.114Z,78.12
2022-09-10T13:38:47.660Z,77.63
2022-09-10T13:41:59.896Z,78.24
2022-09-10T13:44:55.856Z,78.47
2022-09-10T13:47:29.802Z,77.76
2022-09-10T13:50:01.932Z,76.93
2022-09-10T13:52:34.617Z,77.18
2022-09-10T13:55:04.220Z,77.12
2022-09-10T13:57:35.449Z,76.96
2022-09-10T14:00:08.093Z,75.52
2022-09-10T14:02:44.732Z,73.38
2022-09-10T14:05:27.187Z,73.46
2022-09-10T14:07:57.035Z,74.01
2022-09-10T14:10:24.998Z,74.01
2022-09-10T14:12:54.189Z,75.24
2022-09-10T14:15:25.687Z,75.85
2022-09-10T14:17:59.196Z,74.38
2022-09-10T14:20:29.559Z,74.80
2022-09-10T14:23:00.721Z,74.95
2022-09-10T14:25:31.385Z,75.06
2022-09-10T14:28:25.807Z,75.25
2022-09-10T14:31:18.836Z,74.38
2022-09-10T14:33:47.720Z,75.36
2022-09-10T14:36:17.806Z,75.65
2022-09-10T14:38:54.301Z,76.30
2022-09-10T14:41:24.699Z,76.32
2022-09-10T14:44:16.790Z,75.69
2022-09-10T14:46:50.072Z,76.88
2022-09-10T14:49:20.551Z,77.13
2022-09-10T14:51:48.033Z,77.23
2022-09-10T14:54:15.499Z,78.04
2022-09-10T14:56:45.000Z,80.08
2022-09-10T14:59:16.731Z,81.46
2022-09-10T15:01:46.443Z,80.96
2022-09-10T15:04:15.799Z,82.46
2022-09-10T15:06:45.017Z,82.26
2022-09-10T15:09:13.630Z,83.05
2022-09-10T15:11:52.038Z,82.35
2022-09-10T15:14:19.999Z,83.12
2022-09-10T15:16:47.936Z,83.05
2022-09-10T15:19:15.318Z,83.24
2022-09-10T15:21:44.119Z,83.42
2022-09-10T15:24:14.903Z,83.64
2022-09-10T15:26:42.377Z,83.86
2022-09-10T15:29:10.040Z,84.63
2022-09-10T15:31:38.258Z,84.89
2022-09-10T15:34:07.980Z,84.17
2022-09-10T15:36:36.967Z,84.55
2022-09-10T15:39:06.839Z,84.32
2022-09-10T15:41:35.029Z,83.71
2022-09-10T15:44:03.895Z,84.42
2022-09-10T15:46:31.327Z,83.44
2022-09-10T15:48:59.345Z,83.36
2022-09-10T15:51:27.066Z,83.31
2022-09-10T15:53:55.143Z,83.56
2022-09-10T15:56:25.916Z,83.85
2022-09-10T15:58:56.551Z,83.35
2022-09-10T16:01:25.395Z,84.17
2022-09-10T16:03:55.230Z,84.16
2022-09-10T16:06:25.119Z,84.89
2022-09-10T16:08:56.505Z,85.01
2022-09-10T16:11:26.183Z,85.38
2022-09-10T16:13:53.818Z,85.32
2022-09-10T16:16:23.709Z,85.25
2022-09-10T16:18:51.674Z,85.18
2022-09-10T16:21:22.226Z,85.06
2022-09-10T16:23:52.196Z,85.59
2022-09-10T16:26:21.885Z,84.99
2022-09-10T16:28:51.399Z,85.03
2022-09-10T16:31:20.939Z,85.29
2022-09-10T16:33:52.806Z,85.41
2022-09-10T16:36:22.200Z,85.48
2022-09-10T16:38:53.723Z,85.32
2022-09-10T16:41:22.160Z,85.82
2022-09-10T16:43:51.503Z,85.51
2022-09-10T16:46:19.332Z,86.04
2022-09-10T16:48:47.029Z,85.66
2022-09-10T16:51:16.524Z,85.60
2022-09-10T16:53:45.899Z,85.64
2022-09-10T16:56:15.745Z,85.83
2022-09-10T16:58:48.123Z,85.81
2022-09-10T17:01:17.334Z,86.10
2022-09-10T17:03:46.184Z,86.17
2022-09-10T17:06:15.540Z,86.03
2022-09-10T17:08:45.073Z,86.09
2022-09-10T17:11:12.912Z,86.34
2022-09-10T17:13:40.326Z,86.00
2022-09-10T17:16:23.212Z,85.78
2022-09-10T17:18:56.110Z,85.72
2022-09-10T17:21:23.558Z,86.17
2022-09-10T17:23:50.963Z,85.95
2022-09-10T17:26:18.744Z,86.06
2022-09-10T17:28:53.211Z,85.46
2022-09-10T17:31:22.164Z,85.71
2022-09-10T17:33:49.912Z,85.08
2022-09-10T17:36:17.585Z,85.05
2022-09-10T17:38:45.854Z,85.99
2022-09-10T17:41:14.442Z,86.12
2022-09-10T17:43:43.777Z,86.33
2022-09-10T17:46:14.744Z,87.13
2022-09-10T17:48:45.626Z,87.41
2022-09-10T17:51:14.512Z,88.11
2022-09-10T17:53:43.296Z,87.90
2022-09-10T17:56:12.211Z,87.88
2022-09-10T17:58:40.020Z,87.83
2022-09-10T18:01:10.078Z,88.14
2022-09-10T18:03:37.896Z,88.21
2022-09-10T18:06:08.703Z,88.14
2022-09-10T18:08:36.811Z,88.18
2022-09-10T18:11:05.692Z,88.31
2022-09-10T18:13:34.011Z,88.27
2022-09-10T18:16:06.307Z,88.53
2022-09-10T18:18:34.834Z,88.03
2022-09-10T18:21:13.735Z,88.15
2022-09-10T18:23:43.538Z,88.20
2022-09-10T18:26:13.016Z,87.97
2022-09-10T18:28:40.454Z,88.20
2022-09-10T18:31:08.014Z,88.44
2022-09-10T18:33:38.237Z,88.28
2022-09-10T18:36:13.638Z,88.20
2022-09-10T18:38:42.059Z,88.18
2022-09-10T18:41:21.784Z,87.96
2022-09-10T18:43:50.793Z,88.33
2022-09-10T18:46:19.887Z,87.70
2022-09-10T18:48:48.357Z,87.90
2022-09-10T18:51:20.343Z,87.98
2022-09-10T18:53:49.539Z,87.46
2022-09-10T18:56:19.256Z,87.68
2022-09-10T18:58:49.905Z,88.16
2022-09-10T19:01:18.853Z,87.64
2022-09-10T19:03:48.291Z,87.88
2022-09-10T19:06:19.055Z,87.83
2022-09-10T19:08:52.497Z,88.04
2022-09-10T19:11:21.217Z,87.86
2022-09-10T19:13:49.894Z,88.01
2022-09-10T19:16:18.334Z,88.20
2022-09-10T19:18:50.615Z,88.29
2022-09-10T19:21:20.096Z,88.14
2022-09-10T19:23:49.102Z,88.30
2022-09-10T19:26:17.671Z,88.12
2022-09-10T19:28:45.636Z,88.17
2022-09-10T19:31:15.065Z,87.92
2022-09-10T19:33:42.803Z,88.42
2022-09-10T19:36:12.373Z,88.14
2022-09-10T19:38:42.206Z,88.15
2022-09-10T19:41:12.077Z,88.29
2022-09-10T19:43:40.372Z,88.47
2022-09-10T19:46:11.062Z,88.39
2022-09-10T19:48:38.749Z,88.59
2022-09-10T19:51:07.774Z,88.64
2022-09-10T19:53:35.340Z,88.83
2022-09-10T19:56:08.997Z,88.71
2022-09-10T19:58:37.427Z,88.91
2022-09-10T20:01:09.328Z,88.94
2022-09-10T20:03:37.592Z,89.10
2022-09-10T20:06:05.544Z,89.31
2022-09-10T20:08:34.662Z,89.29
2022-09-10T20:11:05.838Z,89.18
2022-09-10T20:13:34.992Z,89.14
2022-09-10T20:16:03.188Z,89.27
2022-09-10T20:18:31.943Z,89.30
2022-09-10T20:21:11.586Z,89.62
2022-09-10T20:23:39.382Z,89.43
2022-09-10T20:26:11.976Z,89.97
2022-09-10T20:28:41.129Z,89.82
2022-09-10T20:31:10.675Z,90.28
2022-09-10T20:33:39.090Z,90.24
2022-09-10T20:36:11.439Z,90.35
2022-09-10T20:38:38.981Z,90.39
2022-09-10T20:41:07.428Z,90.36
2022-09-10T20:43:35.396Z,90.64
2022-09-10T20:46:05.048Z,90.38
2022-09-10T20:48:33.082Z,90.50
2022-09-10T20:51:01.541Z,90.80
2022-09-10T20:53:28.985Z,91.02
2022-09-10T20:56:03.723Z,91.08
2022-09-10T20:58:32.343Z,91.35
2022-09-10T21:01:07.858Z,91.45
2022-09-10T21:03:35.285Z,91.86
2022-09-10T21:06:03.168Z,91.56
2022-09-10T21:08:31.467Z,91.37
2022-09-10T21:11:04.818Z,91.21
2022-09-10T21:13:34.106Z,91.31
2022-09-10T21:16:09.166Z,91.70
2022-09-10T21:18:36.716Z,91.58
2022-09-10T21:21:08.094Z,91.36
2022-09-10T21:23:36.549Z,91.49
2022-09-10T21:26:05.024Z,91.81
2022-09-10T21:28:32.461Z,91.70
2022-09-10T21:31:03.022Z,92.06
2022-09-10T21:33:31.852Z,92.29
2022-09-10T21:36:03.074Z,92.26
2022-09-10T21:38:30.984Z,92.27
2022-09-10T21:40:59.285Z,92.08
2022-09-10T21:43:27.445Z,92.00
2022-09-10T21:45:55.362Z,92.01
2022-09-10T21:48:23.218Z,91.89
2022-09-10T21:51:00.259Z,91.77
2022-09-10T21:53:28.219Z,91.57
2022-09-10T21:55:55.987Z,91.81
2022-09-10T21:58:24.138Z,91.74
2022-09-10T22:00:51.631Z,92.12
2022-09-10T22:03:19.907Z,91.80
2022-09-10T22:05:47.535Z,91.95
2022-09-10T22:08:16.330Z,91.61
2022-09-10T22:10:43.848Z,92.00
2022-09-10T22:13:11.687Z,91.91
2022-09-10T22:15:40.302Z,92.05
2022-09-10T22:18:08.274Z,92.02
2022-09-10T22:20:35.930Z,92.06
2022-09-10T22:23:04.086Z,92.20
2022-09-10T22:25:33.251Z,92.58
2022-09-10T22:28:00.648Z,92.58
2022-09-10T22:30:28.881Z,92.66
2022-09-10T22:32:57.168Z,92.85
2022-09-10T22:35:25.548Z,92.92
2022-09-10T22:37:55.892Z,93.10
2022-09-10T22:40:23.942Z,93.22
2022-09-10T22:42:53.724Z,93.42
2022-09-10T22:45:21.126Z,93.31
2022-09-10T22:47:48.929Z,93.28
2022-09-10T22:50:16.515Z,93.67
2022-09-10T22:52:45.679Z,93.88
2022-09-10T22:55:14.170Z,93.50
2022-09-10T22:57:41.826Z,93.42
2022-09-10T23:00:13.283Z,93.73
2022-09-10T23:02:40.785Z,93.76
2022-09-10T23:05:08.800Z,93.54
2022-09-10T23:07:36.332Z,93.36
2022-09-10T23:10:04.085Z,93.53
2022-09-10T23:12:31.533Z,93.67
2022-09-10T23:14:59.000Z,93.64
2022-09-10T23:17:27.790Z,93.68
2022-09-10T23:19:55.444Z,93.89
2022-09-10T23:22:22.957Z,93.82
2022-09-10T23:24:50.378Z,93.93
2022-09-10T23:27:17.790Z,93.41
2022-09-10T23:29:45.221Z,93.76
2022-09-10T23:32:12.656Z,93.93
2022-09-10T23:34:41.522Z,93.83
2022-09-10T23:37:09.908Z,93.98
2022-09-10T23:39:37.722Z,93.88
2022-09-10T23:42:05.916Z,94.59
2022-09-10T23:44:33.920Z,94.61
2022-09-10T23:47:01.493Z,94.85
2022-09-10T23:49:29.034Z,94.81
2022-09-10T23:51:57.803Z,95.21
2022-09-10T23:54:25.385Z,95.09
2022-09-10T23:56:52.840Z,95.28
2022-09-10T23:59:20.294Z,95.45
